Time;durP1;ratioP1;P1;durP2;ratioP2;P2;SDS_P1;SDS_P2;PMS_P1;PMS_P2;Temp;Humidity;BMP_temperature;BMP_pressure;BME280_temperature;BME280_humidity;BME280_pressure;Samples;Min_cycle;Max_cycle;Signal;HPM_P1;HPM_P2
2021/06/28 00:01:38;;;;;;;2.23;2.03;;;;;;;21.77;68.53;100239.10;;;;-54
2021/06/28 00:04:38;;;;;;;2.55;2.12;;;;;;;21.77;68.52;100235.27;;;;-55
2021/06/28 00:07:38;;;;;;;2.25;2.03;;;;;;;21.76;68.49;100228.73;;;;-54
2021/06/28 00:10:39;;;;;;;2.08;1.88;;;;;;;21.76;68.48;100230.61;;;;-54
2021/06/28 00:13:38;;;;;;;2.26;2.06;;;;;;;21.76;68.47;100237.55;;;;-54
2021/06/28 00:16:38;;;;;;;2.29;2.09;;;;;;;21.76;68.47;100239.75;;;;-54
2021/06/28 00:19:38;;;;;;;2.28;2.08;;;;;;;21.75;68.50;100236.83;;;;-54
2021/06/28 00:22:39;;;;;;;2.05;1.90;;;;;;;21.75;68.47;100232.59;;;;-55
2021/06/28 00:25:38;;;;;;;2.29;1.90;;;;;;;21.75;68.49;100233.22;;;;-54
2021/06/28 00:28:38;;;;;;;2.11;1.96;;;;;;;21.74;68.50;100238.86;;;;-55
2021/06/28 00:31:39;;;;;;;2.50;1.95;;;;;;;21.74;68.46;100235.68;;;;-54
2021/06/28 00:34:39;;;;;;;2.21;2.01;;;;;;;21.74;68.50;100237.15;;;;-55
2021/06/28 00:37:38;;;;;;;2.27;2.07;;;;;;;21.74;68.47;100233.72;;;;-54
2021/06/28 00:40:38;;;;;;;2.20;2.00;;;;;;;21.74;68.44;100234.71;;;;-54
2021/06/28 00:43:38;;;;;;;2.09;1.90;;;;;;;21.74;68.47;100241.23;;;;-54
2021/06/28 00:46:38;;;;;;;1.95;1.79;;;;;;;21.74;68.46;100239.44;;;;-55
2021/06/28 00:49:39;;;;;;;2.09;1.89;;;;;;;21.74;68.50;100241.56;;;;-55
2021/06/28 00:52:38;;;;;;;2.33;1.99;;;;;;;21.73;68.42;100239.76;;;;-54
2021/06/28 00:55:38;;;;;;;1.88;1.78;;;;;;;21.72;68.48;100233.73;;;;-55
2021/06/28 00:58:38;;;;;;;1.99;1.88;;;;;;;21.72;68.49;100229.00;;;;-55
2021/06/28 01:01:38;;;;;;;2.00;1.90;;;;;;;21.72;68.49;100230.39;;;;-55
2021/06/28 01:04:39;;;;;;;2.14;1.97;;;;;;;21.71;68.47;100226.82;;;;-54
2021/06/28 01:07:38;;;;;;;2.18;1.95;;;;;;;21.71;68.50;100226.82;;;;-54
2021/06/28 01:10:39;;;;;;;2.79;1.90;;;;;;;21.71;68.43;100230.50;;;;-55
2021/06/28 01:13:40;;;;;;;2.03;1.92;;;;;;;21.71;68.50;100228.05;;;;-54
2021/06/28 01:16:38;;;;;;;2.05;1.88;;;;;;;21.70;68.40;100223.63;;;;-55
2021/06/28 01:19:39;;;;;;;2.04;1.87;;;;;;;21.70;68.47;100223.95;;;;-54
2021/06/28 01:22:38;;;;;;;2.16;1.99;;;;;;;21.69;68.48;100220.71;;;;-54
2021/06/28 01:25:38;;;;;;;2.05;1.91;;;;;;;21.69;68.51;100226.91;;;;-54
2021/06/28 01:28:39;;;;;;;2.09;1.89;;;;;;;21.70;68.49;100237.83;;;;-54
2021/06/28 01:31:38;;;;;;;2.94;1.99;;;;;;;21.70;68.48;100235.63;;;;-55
2021/06/28 01:34:39;;;;;;;2.57;2.06;;;;;;;21.69;68.46;100233.59;;;;-54
2021/06/28 01:37:38;;;;;;;2.28;1.85;;;;;;;21.69;68.48;100227.58;;;;-55
2021/06/28 01:40:38;;;;;;;2.23;1.93;;;;;;;21.69;68.44;100230.51;;;;-55
2021/06/28 01:43:39;;;;;;;2.09;1.89;;;;;;;21.68;68.45;100230.73;;;;-54
2021/06/28 01:46:38;;;;;;;2.00;1.90;;;;;;;21.68;68.45;100230.00;;;;-54
2021/06/28 01:49:38;;;;;;;2.13;1.93;;;;;;;21.68;68.46;100231.72;;;;-54
2021/06/28 01:52:38;;;;;;;1.90;1.80;;;;;;;21.68;68.46;100236.05;;;;-54
2021/06/28 01:55:38;;;;;;;1.85;1.75;;;;;;;21.68;68.51;100233.20;;;;-54
2021/06/28 01:58:39;;;;;;;1.91;1.81;;;;;;;21.68;68.43;100236.30;;;;-54
2021/06/28 02:01:38;;;;;;;1.97;1.87;;;;;;;21.67;68.47;100241.69;;;;-54
2021/06/28 02:04:38;;;;;;;2.34;1.89;;;;;;;21.67;68.47;100236.72;;;;-54
2021/06/28 02:07:38;;;;;;;2.39;1.93;;;;;;;21.66;68.48;100231.73;;;;-55
2021/06/28 02:10:38;;;;;;;2.20;2.00;;;;;;;21.67;68.46;100233.70;;;;-54
2021/06/28 02:13:38;;;;;;;2.16;1.91;;;;;;;21.66;68.43;100236.95;;;;-55
2021/06/28 02:16:38;;;;;;;2.04;1.84;;;;;;;21.66;68.49;100224.31;;;;-54
2021/06/28 02:19:38;;;;;;;2.09;1.87;;;;;;;21.66;68.46;100219.42;;;;-54
2021/06/28 02:22:39;;;;;;;2.10;1.90;;;;;;;21.65;68.46;100213.82;;;;-54
2021/06/28 02:25:38;;;;;;;1.77;1.67;;;;;;;21.65;68.50;100213.65;;;;-54
2021/06/28 02:28:39;;;;;;;2.04;1.89;;;;;;;21.65;68.47;100209.98;;;;-54
2021/06/28 02:31:38;;;;;;;1.99;1.87;;;;;;;21.64;68.50;100200.84;;;;-55
2021/06/28 02:34:38;;;;;;;1.87;1.77;;;;;;;21.65;68.52;100205.50;;;;-55
2021/06/28 02:37:39;;;;;;;2.07;1.85;;;;;;;21.64;68.46;100196.95;;;;-55
2021/06/28 02:40:38;;;;;;;1.85;1.75;;;;;;;21.64;68.48;100197.66;;;;-54
2021/06/28 02:43:39;;;;;;;2.05;1.91;;;;;;;21.65;68.47;100198.66;;;;-54
2021/06/28 02:46:38;;;;;;;2.07;1.91;;;;;;;21.63;68.49;100191.55;;;;-54
2021/06/28 02:49:38;;;;;;;1.94;1.84;;;;;;;21.63;68.51;100193.03;;;;-55
2021/06/28 02:52:38;;;;;;;1.97;1.79;;;;;;;21.63;68.48;100192.78;;;;-55
2021/06/28 02:55:38;;;;;;;2.09;1.89;;;;;;;21.63;68.54;100187.89;;;;-54
2021/06/28 02:58:38;;;;;;;1.88;1.73;;;;;;;21.64;68.54;100183.48;;;;-55
2021/06/28 03:01:38;;;;;;;1.92;1.82;;;;;;;21.63;68.54;100182.03;;;;-54
2021/06/28 03:04:38;;;;;;;1.87;1.70;;;;;;;21.62;68.52;100184.30;;;;-54
2021/06/28 03:07:38;;;;;;;1.90;1.80;;;;;;;21.62;68.47;100186.66;;;;-54
2021/06/28 03:10:38;;;;;;;1.92;1.78;;;;;;;21.61;68.51;100178.84;;;;-54
2021/06/28 03:13:39;;;;;;;1.90;1.80;;;;;;;21.61;68.50;100176.81;;;;-54
2021/06/28 03:16:38;;;;;;;1.81;1.71;;;;;;;21.60;68.46;100173.16;;;;-54
2021/06/28 03:19:38;;;;;;;1.90;1.80;;;;;;;21.60;68.49;100169.25;;;;-54
2021/06/28 03:22:39;;;;;;;1.97;1.79;;;;;;;21.61;68.46;100172.01;;;;-55
2021/06/28 03:25:39;;;;;;;1.91;1.81;;;;;;;21.61;68.43;100176.25;;;;-55
2021/06/28 03:28:38;;;;;;;1.85;1.75;;;;;;;21.61;68.43;100184.55;;;;-54
2021/06/28 03:31:39;;;;;;;1.85;1.75;;;;;;;21.61;68.47;100181.55;;;;-54
2021/06/28 03:34:38;;;;;;;1.82;1.72;;;;;;;21.60;68.46;100176.23;;;;-54
2021/06/28 03:37:39;;;;;;;2.06;1.83;;;;;;;21.59;68.47;100178.28;;;;-54
2021/06/28 03:40:38;;;;;;;1.91;1.81;;;;;;;21.59;68.50;100175.77;;;;-54
2021/06/28 03:43:38;;;;;;;1.90;1.80;;;;;;;21.59;68.53;100181.06;;;;-54
2021/06/28 03:46:39;;;;;;;1.90;1.80;;;;;;;21.59;68.47;100184.97;;;;-54
2021/06/28 03:49:38;;;;;;;1.97;1.85;;;;;;;21.59;68.47;100190.29;;;;-54
2021/06/28 03:52:38;;;;;;;1.80;1.70;;;;;;;21.59;68.45;100192.48;;;;-55
2021/06/28 03:55:38;;;;;;;2.24;2.04;;;;;;;21.59;68.52;100182.30;;;;-54
2021/06/28 03:58:38;;;;;;;1.91;1.81;;;;;;;21.58;68.47;100172.74;;;;-55
2021/06/28 04:01:39;;;;;;;1.90;1.80;;;;;;;21.58;68.46;100167.52;;;;-54
2021/06/28 04:04:38;;;;;;;2.27;1.74;;;;;;;21.58;68.53;100184.02;;;;-54
2021/06/28 04:07:38;;;;;;;2.15;1.95;;;;;;;21.58;68.48;100187.36;;;;-54
2021/06/28 04:10:38;;;;;;;2.14;1.79;;;;;;;21.58;68.47;100174.05;;;;-55
2021/06/28 04:13:38;;;;;;;1.93;1.83;;;;;;;21.57;68.48;100162.16;;;;-54
2021/06/28 04:16:39;;;;;;;1.80;1.70;;;;;;;21.57;68.53;100165.09;;;;-55
2021/06/28 04:19:38;;;;;;;1.93;1.74;;;;;;;21.57;68.45;100160.20;;;;-54
2021/06/28 04:22:38;;;;;;;2.02;1.82;;;;;;;21.57;68.50;100153.52;;;;-57
2021/06/28 04:25:38;;;;;;;3.95;2.10;;;;;;;21.57;68.98;100162.00;;;;-52
2021/06/28 04:28:38;;;;;;;3.96;2.81;;;;;;;21.57;70.03;100170.96;;;;-53
2021/06/28 04:31:39;;;;;;;3.51;2.87;;;;;;;21.58;70.19;100171.70;;;;-52
2021/06/28 04:34:43;;;;;;;3.78;3.42;;;;;;;21.59;71.03;100165.73;;;;-53
2021/06/28 04:37:38;;;;;;;3.95;3.65;;;;;;;21.59;71.90;100159.45;;;;-52
2021/06/28 04:40:38;;;;;;;4.24;3.83;;;;;;;21.60;72.28;100165.17;;;;-52
2021/06/28 04:43:38;;;;;;;4.33;3.93;;;;;;;21.60;71.84;100165.23;;;;-56
2021/06/28 04:46:39;;;;;;;4.35;3.95;;;;;;;21.62;72.48;100170.28;;;;-52
2021/06/28 04:49:38;;;;;;;5.19;3.85;;;;;;;21.63;71.77;100171.83;;;;-53
2021/06/28 04:52:38;;;;;;;4.37;3.97;;;;;;;21.64;71.61;100172.06;;;;-53
2021/06/28 04:55:38;;;;;;;4.87;3.83;;;;;;;21.63;71.22;100177.36;;;;-54
2021/06/28 04:58:38;;;;;;;4.13;3.79;;;;;;;21.64;70.95;100184.53;;;;-53
2021/06/28 05:01:38;;;;;;;4.69;3.77;;;;;;;21.63;70.71;100187.64;;;;-54
2021/06/28 05:04:38;;;;;;;4.73;3.61;;;;;;;21.63;70.47;100176.55;;;;-54
2021/06/28 05:07:38;;;;;;;4.52;3.64;;;;;;;21.64;70.31;100182.50;;;;-53
2021/06/28 05:10:38;;;;;;;3.82;3.38;;;;;;;21.64;70.19;100188.69;;;;-53
2021/06/28 05:13:38;;;;;;;4.54;3.62;;;;;;;21.63;70.04;100188.78;;;;-53
2021/06/28 05:16:39;;;;;;;3.85;3.34;;;;;;;21.63;69.98;100181.53;;;;-54
2021/06/28 05:19:38;;;;;;;3.91;3.60;;;;;;;21.63;69.88;100191.64;;;;-53
2021/06/28 05:22:38;;;;;;;3.75;3.33;;;;;;;21.63;69.88;100204.77;;;;-53
2021/06/28 05:25:38;;;;;;;3.59;3.29;;;;;;;21.63;69.76;100201.52;;;;-53
2021/06/28 05:28:38;;;;;;;4.50;3.31;;;;;;;21.63;69.74;100205.84;;;;-53
2021/06/28 05:31:38;;;;;;;3.68;3.23;;;;;;;21.62;69.71;100214.08;;;;-53
2021/06/28 05:34:38;;;;;;;3.53;3.23;;;;;;;21.62;69.66;100213.66;;;;-53
2021/06/28 05:37:39;;;;;;;3.63;3.25;;;;;;;21.63;69.60;100215.55;;;;-53
2021/06/28 05:40:38;;;;;;;3.56;3.26;;;;;;;21.62;69.54;100211.45;;;;-53
2021/06/28 05:43:38;;;;;;;3.55;3.25;;;;;;;21.61;69.55;100209.84;;;;-53
2021/06/28 05:46:38;;;;;;;4.24;3.13;;;;;;;21.61;69.50;100215.16;;;;-53
2021/06/28 05:49:40;;;;;;;3.90;3.41;;;;;;;21.61;69.48;100217.75;;;;-53
2021/06/28 05:52:38;;;;;;;3.56;3.26;;;;;;;21.60;69.44;100216.55;;;;-54
2021/06/28 05:55:38;;;;;;;3.51;3.21;;;;;;;21.60;69.40;100216.87;;;;-53
2021/06/28 05:58:38;;;;;;;3.59;3.29;;;;;;;21.60;69.36;100214.91;;;;-53
2021/06/28 06:01:38;;;;;;;3.41;3.11;;;;;;;21.60;69.40;100207.95;;;;-58
2021/06/28 06:04:38;;;;;;;3.87;3.11;;;;;;;21.61;69.36;100207.16;;;;-58
2021/06/28 06:07:38;;;;;;;3.33;3.03;;;;;;;21.59;69.36;100203.98;;;;-59
2021/06/28 06:10:39;;;;;;;3.46;3.16;;;;;;;21.59;69.29;100205.94;;;;-59
2021/06/28 06:13:38;;;;;;;3.30;3.00;;;;;;;21.59;69.26;100208.30;;;;-58
2021/06/28 06:16:38;;;;;;;3.47;3.17;;;;;;;21.59;69.24;100216.78;;;;-58
2021/06/28 06:19:39;;;;;;;3.21;2.91;;;;;;;21.59;69.24;100219.97;;;;-57
2021/06/28 06:22:38;;;;;;;3.17;2.97;;;;;;;21.58;69.19;100225.60;;;;-58
2021/06/28 06:25:38;;;;;;;3.43;3.13;;;;;;;21.58;69.23;100220.55;;;;-59
2021/06/28 06:28:38;;;;;;;3.56;3.26;;;;;;;21.58;69.19;100218.90;;;;-58
2021/06/28 06:31:38;;;;;;;3.40;3.10;;;;;;;21.58;69.20;100215.09;;;;-58
2021/06/28 06:34:38;;;;;;;3.45;3.15;;;;;;;21.57;69.19;100213.53;;;;-53
2021/06/28 06:37:38;;;;;;;3.09;2.89;;;;;;;21.57;69.11;100219.08;;;;-53
2021/06/28 06:40:38;;;;;;;3.07;2.79;;;;;;;21.57;69.13;100222.74;;;;-53
2021/06/28 06:43:38;;;;;;;3.63;3.28;;;;;;;21.57;69.07;100230.42;;;;-53
2021/06/28 06:46:38;;;;;;;3.30;3.04;;;;;;;21.57;69.07;100231.07;;;;-53
2021/06/28 06:49:38;;;;;;;3.13;2.87;;;;;;;21.57;69.09;100237.09;;;;-54
2021/06/28 06:52:38;;;;;;;3.20;2.91;;;;;;;21.57;69.07;100242.23;;;;-53
2021/06/28 06:55:38;;;;;;;3.23;3.01;;;;;;;21.57;68.98;100247.37;;;;-53
2021/06/28 06:58:38;;;;;;;3.29;2.99;;;;;;;21.57;69.00;100247.20;;;;-54
2021/06/28 07:01:41;;;;;;;3.31;3.04;;;;;;;21.56;68.99;100250.16;;;;-53
2021/06/28 07:04:38;;;;;;;3.16;2.96;;;;;;;21.56;69.05;100249.67;;;;-53
2021/06/28 07:07:40;;;;;;;3.09;2.89;;;;;;;21.56;68.93;100244.70;;;;-53
2021/06/28 07:10:38;;;;;;;3.18;2.92;;;;;;;21.55;69.01;100241.09;;;;-53
2021/06/28 07:13:38;;;;;;;3.32;2.91;;;;;;;21.57;69.17;100244.27;;;;-49
2021/06/28 07:16:38;;;;;;;3.23;2.95;;;;;;;21.59;69.29;100246.55;;;;-50
2021/06/28 07:19:38;;;;;;;3.12;2.92;;;;;;;21.60;69.44;100244.66;;;;-51
2021/06/28 07:22:38;;;;;;;3.25;2.95;;;;;;;21.61;69.42;100241.48;;;;-50
2021/06/28 07:25:38;;;;;;;3.24;3.04;;;;;;;21.63;69.53;100246.86;;;;-50
2021/06/28 07:28:38;;;;;;;4.37;3.01;;;;;;;21.65;69.56;100252.55;;;;-51
2021/06/28 07:31:38;;;;;;;4.44;3.06;;;;;;;21.68;69.58;100258.48;;;;-53
2021/06/28 07:34:39;;;;;;;3.33;3.03;;;;;;;21.69;69.61;100262.39;;;;-49
2021/06/28 07:37:38;;;;;;;3.43;2.91;;;;;;;21.70;69.47;100264.25;;;;-51
2021/06/28 07:40:38;;;;;;;3.74;2.99;;;;;;;21.69;69.53;100259.30;;;;-51
2021/06/28 07:43:38;;;;;;;3.81;2.79;;;;;;;21.69;69.57;100255.87;;;;-51
2021/06/28 07:46:38;;;;;;;3.27;2.97;;;;;;;21.69;69.44;100254.90;;;;-51
2021/06/28 07:49:38;;;;;;;4.88;3.09;;;;;;;21.72;69.78;100266.77;;;;-47
2021/06/28 07:52:38;;;;;;;6.05;3.29;;;;;;;21.73;70.22;100259.11;;;;-53
2021/06/28 07:55:38;;;;;;;4.91;3.00;;;;;;;21.73;69.71;100251.69;;;;-53
2021/06/28 07:58:39;;;;;;;6.12;3.05;;;;;;;21.73;69.83;100256.34;;;;-53
2021/06/28 08:01:38;;;;;;;7.45;2.98;;;;;;;21.72;69.80;100267.02;;;;-53
2021/06/28 08:04:38;;;;;;;9.30;3.03;;;;;;;21.73;70.04;100257.37;;;;-51
2021/06/28 08:07:38;;;;;;;4.71;3.10;;;;;;;21.73;69.96;100247.77;;;;-51
2021/06/28 08:10:38;;;;;;;6.26;2.89;;;;;;;21.75;69.91;100254.43;;;;-58
2021/06/28 08:13:39;;;;;;;8.11;3.23;;;;;;;21.77;70.24;100252.55;;;;-57
2021/06/28 08:16:38;;;;;;;7.23;3.05;;;;;;;21.79;70.13;100251.41;;;;-58
2021/06/28 08:19:42;;;;;;;5.05;3.26;;;;;;;21.81;70.37;100245.91;;;;-47
2021/06/28 08:22:38;;;;;;;4.15;3.31;;;;;;;21.83;70.43;100244.91;;;;-51
2021/06/28 08:25:38;;;;;;;13.79;3.51;;;;;;;21.85;71.58;100246.64;;;;-57
2021/06/28 08:28:39;;;;;;;13.35;3.38;;;;;;;21.87;71.06;100248.09;;;;-50
2021/06/28 08:31:38;;;;;;;6.69;3.23;;;;;;;21.89;70.87;100251.98;;;;-48
2021/06/28 08:34:38;;;;;;;6.91;3.29;;;;;;;21.90;71.24;100253.77;;;;-54
2021/06/28 08:37:38;;;;;;;13.87;3.53;;;;;;;21.90;71.17;100255.81;;;;-46
2021/06/28 08:40:38;;;;;;;8.76;3.65;;;;;;;21.91;71.36;100265.82;;;;-52
2021/06/28 08:43:39;;;;;;;10.79;3.67;;;;;;;21.93;71.75;100276.98;;;;-51
2021/06/28 08:46:39;;;;;;;10.32;3.76;;;;;;;21.95;71.42;100288.40;;;;-52
2021/06/28 08:49:38;;;;;;;13.25;3.63;;;;;;;21.95;70.78;100290.77;;;;-58
2021/06/28 08:52:39;;;;;;;9.21;3.42;;;;;;;21.94;70.89;100289.57;;;;-58
2021/06/28 08:55:40;;;;;;;7.45;3.33;;;;;;;21.94;71.27;100294.53;;;;-59
2021/06/28 08:58:38;;;;;;;9.53;3.42;;;;;;;21.95;71.01;100293.30;;;;-60
2021/06/28 09:01:38;;;;;;;6.75;3.29;;;;;;;21.95;70.93;100294.52;;;;-56
2021/06/28 09:04:38;;;;;;;8.91;3.37;;;;;;;21.96;70.90;100288.42;;;;-58
2021/06/28 09:07:38;;;;;;;6.97;3.35;;;;;;;21.96;70.87;100290.62;;;;-56
2021/06/28 09:10:38;;;;;;;10.73;3.37;;;;;;;21.97;70.80;100290.68;;;;-57
2021/06/28 09:13:38;;;;;;;3.71;3.08;;;;;;;21.98;70.95;100293.79;;;;-52
2021/06/28 09:16:39;;;;;;;4.61;3.28;;;;;;;21.99;70.89;100296.12;;;;-57
2021/06/28 09:19:38;;;;;;;4.44;3.20;;;;;;;22.00;70.70;100302.50;;;;-56
2021/06/28 09:22:39;;;;;;;11.86;3.27;;;;;;;22.01;70.65;100298.00;;;;-51
2021/06/28 09:25:38;;;;;;;10.06;3.25;;;;;;;22.00;70.65;100295.40;;;;-57
2021/06/28 09:28:40;;;;;;;5.73;3.24;;;;;;;22.00;70.54;100293.19;;;;-57
2021/06/28 09:31:38;;;;;;;10.97;3.29;;;;;;;22.03;70.54;100288.77;;;;-53
2021/06/28 09:34:38;;;;;;;8.15;3.50;;;;;;;22.03;70.37;100284.35;;;;-53
2021/06/28 09:37:38;;;;;;;6.43;3.23;;;;;;;22.04;70.37;100274.33;;;;-51
2021/06/28 09:40:38;;;;;;;6.28;2.99;;;;;;;22.04;70.43;100265.91;;;;-50
2021/06/28 09:43:38;;;;;;;8.32;3.19;;;;;;;22.05;70.28;100257.33;;;;-52
2021/06/28 09:46:38;;;;;;;7.63;3.21;;;;;;;22.05;70.19;100249.82;;;;-51
2021/06/28 09:49:38;;;;;;;17.99;9.96;;;;;;;22.06;70.46;100239.71;;;;-50
2021/06/28 09:52:39;;;;;;;6.31;3.13;;;;;;;22.07;70.38;100232.27;;;;-48
2021/06/28 09:55:42;;;;;;;7.45;3.23;;;;;;;22.08;70.35;100227.11;;;;-49
2021/06/28 09:58:38;;;;;;;9.07;3.17;;;;;;;22.08;70.35;100214.96;;;;-52
2021/06/28 10:01:38;;;;;;;8.41;4.34;;;;;;;22.09;70.43;100205.39;;;;-51
2021/06/28 10:04:41;;;;;;;9.74;3.33;;;;;;;22.09;70.55;100208.48;;;;-51
2021/06/28 10:07:39;;;;;;;5.69;3.37;;;;;;;22.10;70.46;100212.64;;;;-50
2021/06/28 10:10:38;;;;;;;4.91;3.02;;;;;;;22.10;70.40;100216.95;;;;-50
2021/06/28 10:13:38;;;;;;;6.13;2.84;;;;;;;22.11;70.51;100216.55;;;;-52
2021/06/28 10:16:38;;;;;;;7.20;3.31;;;;;;;22.12;70.14;100214.67;;;;-54
2021/06/28 10:19:38;;;;;;;7.32;3.31;;;;;;;22.10;70.15;100219.52;;;;-53
2021/06/28 10:22:38;;;;;;;8.64;3.10;;;;;;;22.10;70.10;100224.23;;;;-53
2021/06/28 10:25:38;;;;;;;4.54;3.09;;;;;;;22.09;70.17;100227.02;;;;-53
2021/06/28 10:28:38;;;;;;;6.29;2.96;;;;;;;22.08;70.12;100230.63;;;;-53
2021/06/28 10:31:38;;;;;;;5.26;2.97;;;;;;;22.08;69.97;100229.80;;;;-54
2021/06/28 10:34:38;;;;;;;7.42;2.84;;;;;;;22.07;69.98;100234.62;;;;-53
2021/06/28 10:37:38;;;;;;;5.71;2.77;;;;;;;22.06;69.94;100227.88;;;;-53
2021/06/28 10:40:38;;;;;;;4.69;2.72;;;;;;;22.06;69.82;100213.67;;;;-53
2021/06/28 10:43:38;;;;;;;5.71;2.90;;;;;;;22.05;69.81;100202.64;;;;-53
2021/06/28 10:46:38;;;;;;;4.15;2.79;;;;;;;22.05;69.85;100202.00;;;;-53
2021/06/28 10:49:38;;;;;;;5.03;2.79;;;;;;;22.04;69.73;100197.28;;;;-53
2021/06/28 10:52:38;;;;;;;5.25;2.76;;;;;;;22.04;69.68;100197.86;;;;-57
2021/06/28 10:55:39;;;;;;;5.53;2.90;;;;;;;22.03;69.67;100198.09;;;;-57
2021/06/28 10:58:38;;;;;;;5.17;2.72;;;;;;;22.03;69.70;100200.54;;;;-57
2021/06/28 11:01:39;;;;;;;5.36;2.90;;;;;;;22.03;69.73;100198.50;;;;-55
2021/06/28 11:04:38;;;;;;;3.85;2.85;;;;;;;22.04;69.70;100196.64;;;;-52
2021/06/28 11:07:38;;;;;;;5.22;2.89;;;;;;;22.06;69.75;100201.11;;;;-52
2021/06/28 11:10:38;;;;;;;4.69;2.80;;;;;;;22.07;69.80;100198.39;;;;-52
2021/06/28 11:13:40;;;;;;;7.03;3.11;;;;;;;22.08;69.83;100195.05;;;;-49
2021/06/28 11:16:40;;;;;;;10.16;2.95;;;;;;;22.09;70.04;100187.35;;;;-51
2021/06/28 11:19:38;;;;;;;6.85;3.29;;;;;;;22.10;69.89;100188.32;;;;-52
2021/06/28 11:22:38;;;;;;;6.07;2.81;;;;;;;22.10;69.79;100181.55;;;;-59
2021/06/28 11:25:38;;;;;;;5.29;2.65;;;;;;;22.10;69.80;100180.81;;;;-58
2021/06/28 11:28:38;;;;;;;7.33;2.87;;;;;;;22.09;69.82;100180.91;;;;-58
2021/06/28 11:31:38;;;;;;;5.47;2.75;;;;;;;22.08;69.87;100170.31;;;;-58
2021/06/28 11:34:38;;;;;;;6.57;3.17;;;;;;;22.08;69.76;100164.94;;;;-57
2021/06/28 11:37:38;;;;;;;6.67;3.00;;;;;;;22.07;69.68;100170.16;;;;-58
2021/06/28 11:40:38;;;;;;;3.69;2.74;;;;;;;22.06;69.64;100167.07;;;;-57
2021/06/28 11:43:38;;;;;;;3.71;2.80;;;;;;;22.07;69.61;100169.11;;;;-58
2021/06/28 11:46:38;;;;;;;5.67;2.99;;;;;;;22.06;69.69;100167.64;;;;-51
2021/06/28 11:49:38;;;;;;;7.37;2.99;;;;;;;22.07;69.68;100165.34;;;;-50
2021/06/28 11:52:39;;;;;;;5.27;3.13;;;;;;;22.08;69.71;100166.48;;;;-57
2021/06/28 11:55:38;;;;;;;10.11;3.21;;;;;;;22.07;69.79;100160.84;;;;-57
2021/06/28 11:58:38;;;;;;;5.74;2.76;;;;;;;22.07;69.85;100161.58;;;;-56
2021/06/28 12:01:38;;;;;;;5.12;2.99;;;;;;;22.07;69.81;100160.61;;;;-57
2021/06/28 12:04:38;;;;;;;7.43;2.65;;;;;;;22.07;69.71;100160.94;;;;-57
2021/06/28 12:07:40;;;;;;;6.69;2.73;;;;;;;22.06;69.64;100160.30;;;;-57
2021/06/28 12:10:38;;;;;;;4.41;2.73;;;;;;;22.06;69.61;100163.08;;;;-57
2021/06/28 12:13:39;;;;;;;6.29;2.62;;;;;;;22.05;69.50;100161.04;;;;-56
2021/06/28 12:16:38;;;;;;;5.92;2.99;;;;;;;22.05;69.63;100156.70;;;;-57
2021/06/28 12:19:38;;;;;;;4.44;2.74;;;;;;;22.06;69.56;100154.34;;;;-57
2021/06/28 12:22:39;;;;;;;4.52;2.66;;;;;;;22.05;69.48;100150.68;;;;-57
2021/06/28 12:25:38;;;;;;;4.71;2.65;;;;;;;22.05;69.44;100156.06;;;;-57
2021/06/28 12:28:38;;;;;;;4.55;2.91;;;;;;;22.04;69.46;100155.91;;;;-60
2021/06/28 12:31:38;;;;;;;3.66;2.56;;;;;;;22.04;69.46;100155.75;;;;-61
2021/06/28 12:34:38;;;;;;;4.21;2.77;;;;;;;22.04;69.37;100154.86;;;;-60
2021/06/28 12:37:38;;;;;;;3.98;2.49;;;;;;;22.03;69.34;100151.84;;;;-56
2021/06/28 12:40:42;;;;;;;4.49;2.68;;;;;;;22.05;69.46;100152.96;;;;-56
2021/06/28 12:43:38;;;;;;;4.57;2.80;;;;;;;22.06;69.46;100155.98;;;;-59
2021/06/28 12:46:38;;;;;;;7.48;3.23;;;;;;;22.08;69.46;100153.90;;;;-60
2021/06/28 12:49:38;;;;;;;5.89;2.68;;;;;;;22.09;69.50;100154.14;;;;-60
2021/06/28 12:52:38;;;;;;;6.91;2.83;;;;;;;22.10;69.57;100152.08;;;;-59
2021/06/28 12:55:38;;;;;;;9.17;2.85;;;;;;;22.10;69.64;100153.65;;;;-59
2021/06/28 12:58:38;;;;;;;9.55;2.82;;;;;;;22.11;69.75;100155.18;;;;-59
2021/06/28 13:01:39;;;;;;;3.99;2.52;;;;;;;22.13;69.71;100157.38;;;;-54
2021/06/28 13:04:38;;;;;;;5.43;2.83;;;;;;;22.13;69.59;100156.80;;;;-53
2021/06/28 13:07:38;;;;;;;4.89;2.49;;;;;;;22.15;69.80;100156.63;;;;-61
2021/06/28 13:10:38;;;;;;;5.17;2.67;;;;;;;22.16;69.86;100151.30;;;;-62
2021/06/28 13:13:41;;;;;;;5.37;2.51;;;;;;;22.16;69.81;100150.06;;;;-60
2021/06/28 13:16:50;;;;;;;3.89;2.69;;;;;;;22.16;70.11;100153.35;;;;-59
2021/06/28 13:19:38;;;;;;;9.61;2.93;;;;;;;22.17;70.26;100155.70;;;;-53
2021/06/28 13:22:38;;;;;;;8.36;2.70;;;;;;;22.18;70.22;100154.88;;;;-60
2021/06/28 13:25:38;;;;;;;7.17;3.02;;;;;;;22.19;70.22;100147.04;;;;-60
2021/06/28 13:28:38;;;;;;;6.08;2.70;;;;;;;22.20;70.31;100145.71;;;;-54
2021/06/28 13:31:38;;;;;;;4.89;2.71;;;;;;;22.23;70.33;100145.20;;;;-51
2021/06/28 13:34:38;;;;;;;7.29;2.69;;;;;;;22.22;70.44;100148.94;;;;-56
2021/06/28 13:37:39;;;;;;;6.95;2.75;;;;;;;22.23;70.32;100151.91;;;;-54
2021/06/28 13:40:39;;;;;;;6.00;2.59;;;;;;;22.23;70.26;100143.75;;;;-54
2021/06/28 13:43:38;;;;;;;5.31;2.80;;;;;;;22.24;70.23;100139.81;;;;-58
2021/06/28 13:46:38;;;;;;;5.47;2.72;;;;;;;22.26;70.38;100135.80;;;;-52
2021/06/28 13:49:38;;;;;;;7.36;2.86;;;;;;;22.26;70.07;100138.58;;;;-52
2021/06/28 13:52:38;;;;;;;6.33;2.59;;;;;;;22.26;69.95;100136.13;;;;-50
2021/06/28 13:55:38;;;;;;;6.13;2.59;;;;;;;22.27;70.28;100134.34;;;;-54
2021/06/28 13:58:43;;;;;;;7.16;2.72;;;;;;;22.26;70.09;100127.55;;;;-50
2021/06/28 14:01:38;;;;;;;3.95;2.63;;;;;;;22.25;70.11;100122.84;;;;-49
2021/06/28 14:04:38;;;;;;;5.91;2.81;;;;;;;22.25;70.11;100123.91;;;;-48
2021/06/28 14:07:38;;;;;;;8.83;2.67;;;;;;;22.26;70.20;100123.30;;;;-50
2021/06/28 14:10:38;;;;;;;6.47;2.63;;;;;;;22.26;70.33;100118.73;;;;-50
2021/06/28 14:13:38;;;;;;;9.77;2.93;;;;;;;22.28;70.14;100119.20;;;;-50
2021/06/28 14:16:38;;;;;;;6.92;2.74;;;;;;;22.29;70.14;100122.72;;;;-51
2021/06/28 14:19:38;;;;;;;6.73;2.81;;;;;;;22.30;70.28;100122.94;;;;-57
2021/06/28 14:22:38;;;;;;;6.69;2.83;;;;;;;22.30;70.12;100120.57;;;;-50
2021/06/28 14:25:38;;;;;;;7.58;2.83;;;;;;;22.32;70.07;100117.86;;;;-54
2021/06/28 14:28:38;;;;;;;5.82;2.81;;;;;;;22.32;70.02;100111.66;;;;-49
2021/06/28 14:31:38;;;;;;;4.41;2.52;;;;;;;22.33;69.95;100109.03;;;;-49
2021/06/28 14:34:38;;;;;;;4.61;2.62;;;;;;;22.33;69.95;100110.83;;;;-53
2021/06/28 14:37:38;;;;;;;5.00;2.69;;;;;;;22.34;69.96;100116.22;;;;-54
2021/06/28 14:40:38;;;;;;;3.95;2.59;;;;;;;22.35;69.86;100111.78;;;;-55
2021/06/28 14:43:38;;;;;;;7.61;2.85;;;;;;;22.34;70.00;100104.94;;;;-53
2021/06/28 14:46:38;;;;;;;4.51;2.60;;;;;;;22.35;69.85;100100.84;;;;-54
2021/06/28 14:49:38;;;;;;;4.35;2.73;;;;;;;22.34;69.90;100102.40;;;;-52
2021/06/28 14:52:38;;;;;;;6.43;2.62;;;;;;;22.34;69.77;100099.46;;;;-52
2021/06/28 14:55:38;;;;;;;5.71;2.81;;;;;;;22.35;69.84;100096.59;;;;-56
2021/06/28 14:58:38;;;;;;;5.79;2.63;;;;;;;22.34;69.87;100096.45;;;;-54
2021/06/28 15:01:38;;;;;;;3.99;2.63;;;;;;;22.35;69.78;100097.48;;;;-53
2021/06/28 15:04:38;;;;;;;4.74;2.78;;;;;;;22.35;69.79;100090.14;;;;-54
2021/06/28 15:07:39;;;;;;;3.88;2.64;;;;;;;22.34;69.78;100082.16;;;;-52
2021/06/28 15:10:38;;;;;;;4.11;2.59;;;;;;;22.35;69.78;100080.13;;;;-53
2021/06/28 15:13:38;;;;;;;3.21;2.57;;;;;;;22.35;69.72;100073.73;;;;-51
2021/06/28 15:16:38;;;;;;;3.42;2.70;;;;;;;22.35;69.74;100069.26;;;;-52
2021/06/28 15:19:38;;;;;;;3.43;2.40;;;;;;;22.35;69.70;100071.13;;;;-53
2021/06/28 15:22:38;;;;;;;3.93;2.51;;;;;;;22.36;69.74;100070.64;;;;-49
2021/06/28 15:25:38;;;;;;;3.66;2.54;;;;;;;22.36;69.62;100062.47;;;;-53
2021/06/28 15:28:38;;;;;;;6.65;2.41;;;;;;;22.35;69.55;100055.53;;;;-53
2021/06/28 15:31:38;;;;;;;4.31;2.36;;;;;;;22.33;69.54;100055.33;;;;-53
2021/06/28 15:34:38;;;;;;;2.83;2.45;;;;;;;22.32;69.52;100058.50;;;;-52
2021/06/28 15:37:38;;;;;;;4.68;2.59;;;;;;;22.32;69.52;100064.97;;;;-52
2021/06/28 15:40:38;;;;;;;6.09;2.33;;;;;;;22.31;69.54;100057.47;;;;-52
2021/06/28 15:43:40;;;;;;;2.53;2.31;;;;;;;22.30;69.37;100057.62;;;;-52
2021/06/28 15:46:38;;;;;;;4.05;2.30;;;;;;;22.30;69.58;100050.69;;;;-50
2021/06/28 15:49:38;;;;;;;6.97;2.67;;;;;;;22.32;69.95;100052.73;;;;-51
2021/06/28 15:52:38;;;;;;;7.38;2.86;;;;;;;22.34;69.99;100047.15;;;;-52
2021/06/28 15:55:38;;;;;;;9.06;2.79;;;;;;;22.34;70.06;100035.14;;;;-54
2021/06/28 15:58:38;;;;;;;8.39;2.75;;;;;;;22.35;70.12;100037.00;;;;-51
2021/06/28 16:01:42;;;;;;;5.34;2.69;;;;;;;22.34;70.09;100035.70;;;;-49
2021/06/28 16:04:38;;;;;;;6.23;2.58;;;;;;;22.35;70.08;100033.48;;;;-52
2021/06/28 16:07:38;;;;;;;5.00;2.41;;;;;;;22.35;70.10;100034.22;;;;-51
2021/06/28 16:10:38;;;;;;;8.06;2.67;;;;;;;22.35;70.14;100022.63;;;;-51
2021/06/28 16:13:38;;;;;;;4.54;2.49;;;;;;;22.34;70.17;100012.59;;;;-51
2021/06/28 16:16:38;;;;;;;5.51;2.61;;;;;;;22.35;70.13;100003.78;;;;-51
2021/06/28 16:19:38;;;;;;;5.36;2.59;;;;;;;22.36;70.14;100002.30;;;;-51
2021/06/28 16:22:38;;;;;;;7.83;2.51;;;;;;;22.36;70.21;100001.16;;;;-51
2021/06/28 16:25:38;;;;;;;5.48;2.55;;;;;;;22.36;70.12;99996.42;;;;-53
2021/06/28 16:28:39;;;;;;;6.72;2.56;;;;;;;22.36;70.25;99988.34;;;;-51
2021/06/28 16:31:38;;;;;;;6.05;2.60;;;;;;;22.37;70.22;99992.89;;;;-53
2021/06/28 16:34:38;;;;;;;5.03;2.65;;;;;;;22.37;70.28;100002.94;;;;-52
2021/06/28 16:37:38;;;;;;;3.64;2.33;;;;;;;22.38;70.25;100003.58;;;;-54
2021/06/28 16:40:38;;;;;;;4.43;2.32;;;;;;;22.37;70.19;100009.47;;;;-50